METAR Data
IDs: Format: Raw Decoded Include TAF

Data at: 0011 UTC 26 Oct 2021

KAXH 252355Z AUTO 15003KT 10SM CLR 28/24 A2993 RMK AO2 T02760241 10321 20276
KAXH 252335Z AUTO 17005KT 10SM CLR 29/24 A2992 RMK AO2 T02850241
KAXH 252315Z AUTO 14003KT 10SM CLR 30/22 A2991 RMK AO2 T02950220
KAXH 252255Z AUTO 00000KT 10SM CLR 31/22 A2991 RMK AO2 T03050215
KAXH 252235Z AUTO 13003KT 10SM CLR 31/22 A2991 RMK AO2 T03090215
KAXH 252215Z AUTO 00000KT 10SM CLR 31/21 A2991 RMK AO2 T03100211
KAXH 252155Z AUTO 14003KT 10SM CLR 31/21 A2992 RMK AO2 T03120211
KAXH 252135Z AUTO 00000KT 10SM CLR 32/21 A2992 RMK AO2 T03150205
KAXH 252115Z AUTO 00000KT 10SM CLR 32/22 A2992 RMK AO2 T03210218
KAXH 252055Z AUTO 00000KT 10SM CLR 32/21 A2992 RMK AO2 T03160211
KAXH 252035Z AUTO 08003KT 10SM CLR 32/21 A2992 RMK AO2 T03170214
KAXH 252015Z AUTO 09005KT 10SM CLR 32/22 A2993 RMK AO2 T03200221
KAXH 251955Z AUTO 00000KT 10SM CLR 31/22 A2993 RMK AO2 T03130219
KAXH 251935Z AUTO 00000KT 10SM SCT040 30/22 A2993 RMK AO2 T03010219
KAXH 251915Z AUTO 00000KT 10SM CLR 31/22 A2994 RMK AO2 T03110218
KAXH 251855Z AUTO 00000KT 10SM CLR 31/22 A2995 RMK AO2 T03060217
KAXH 251835Z AUTO 00000KT 10SM CLR 31/23 A2995 RMK AO2 T03110225
KAXH 251815Z AUTO 00000KT 10SM CLR 30/24 A2996 RMK AO2 T03040237
KAXH 251755Z AUTO 00000KT 10SM CLR 29/24 A2997 RMK AO2 T02860242 10293 20225
KAXH 251735Z AUTO 29003KT 10SM CLR 28/24 A2998 RMK AO2 T02840236
KAXH 251715Z AUTO 00000KT 10SM CLR 29/25 A2998 RMK AO2 T02880247
KAXH 251655Z AUTO 26003KT 10SM SCT014 SCT028 28/27 A2999 RMK AO2 T02810267
KAXH 251635Z AUTO 00000KT 10SM SCT012 BKN028 26/25 A2999 RMK AO2 T02550247
KAXH 251615Z AUTO 28003KT 10SM BKN010 BKN015 OVC026 25/25 A2999 RMK AO2 T02540246
KAXH 251555Z AUTO 00000KT 7SM SCT006 BKN010 BKN026 25/24 A2999 RMK AO2 T02500242
KAXH 251535Z AUTO 10SM BKN004 OVC010 25/24 A3000 RMK AO2 T02500241
KAXH 251515Z AUTO 00000KT 7SM OVC002 25/24 A2999 RMK AO2 T02480240
KAXH 251455Z AUTO 00000KT 2 1/2SM BR OVC002 25/24 A2999 RMK AO2 VIS 3/4V5 T02450237
KAXH 251435Z AUTO 00000KT 1/4SM FG OVC002 24/24 A3000 RMK AO2 T02430235
KAXH 251415Z AUTO 00000KT M1/4SM FG OVC002 24/23 A2999 RMK AO2 T02400232
KAXH 251355Z AUTO 00000KT M1/4SM FG OVC002 24/23 A2998 RMK AO2 T02380230
KAXH 251335Z AUTO 00000KT M1/4SM FG OVC002 24/23 A2998 RMK AO2 T02350227
KAXH 251315Z AUTO 00000KT M1/4SM FG OVC002 24/23 A2997 RMK AO2 T02350226
KAXH 251255Z AUTO 00000KT M1/4SM FG OVC002 23/23 A2996 RMK AO2 T02330225
KAXH 251235Z AUTO 00000KT 1 1/4SM BR OVC002 23/22 A2995 RMK AO2 T02280220
KAXH 251215Z AUTO 00000KT 1/4SM FG OVC002 23/22 A2994 RMK AO2 T02270220
KAXH 251155Z AUTO 00000KT 1/2SM FG OVC002 23/22 A2993 RMK AO2 60001 70001 T02270220 10234 20218
KAXH 251135Z AUTO 00000KT 1/2SM FG OVC002 23/22 A2993 RMK AO2 T02270220
KAXH 251115Z AUTO 00000KT 1/4SM FG OVC002 23/22 A2992 RMK AO2 T02300221
KAXH 251055Z AUTO 00000KT 1/4SM FG OVC002 23/22 A2992 RMK AO2 T02300222
KAXH 251035Z AUTO 00000KT 1/4SM FG OVC002 23/22 A2992 RMK AO2 T02310223
KAXH 251015Z AUTO 00000KT 1/4SM FG OVC002 23/22 A2991 RMK AO2 T02310223
KAXH 250955Z AUTO 00000KT 1/4SM FG OVC002 23/22 A2991 RMK AO2 P0001 T02310223
KAXH 250935Z AUTO 00000KT 1/4SM FG OVC002 23/23 A2991 RMK AO2 T02320225
KAXH 250915Z AUTO 00000KT M1/4SM FG OVC002 23/23 A2991 RMK AO2 T02330225
KAXH 250855Z AUTO 00000KT 1/4SM FG OVC002 23/23 A2991 RMK AO2 T02330225
KAXH 250835Z AUTO 00000KT M1/4SM FG OVC002 23/22 A2992 RMK AO2 T02310223
KAXH 250815Z AUTO 00000KT 1/4SM FG OVC002 23/22 A2992 RMK AO2 T02310223
KAXH 250755Z AUTO 00000KT 1/4SM FG OVC002 23/23 A2993 RMK AO2 T02330225
KAXH 250735Z AUTO 00000KT 1SM BR OVC004 23/23 A2993 RMK AO2 T02320225
KAXH 250715Z AUTO 00000KT 1 1/4SM BR OVC004 23/22 A2993 RMK AO2 T02260218
KAXH 250655Z AUTO 00000KT 1/4SM FG OVC006 22/22 A2992 RMK AO2 T02230215
KAXH 250635Z AUTO 00000KT 1/4SM FG OVC006 22/22 A2992 RMK AO2 T02240216
KAXH 250615Z AUTO 00000KT 1/2SM FG OVC008 22/22 A2991 RMK AO2 T02230215
KAXH 250555Z AUTO 00000KT 1/2SM FG OVC008 23/22 A2991 RMK AO2 T02260218 10267 20222
KAXH 250535Z AUTO 00000KT 3/4SM BR BKN008 23/22 A2991 RMK AO2 T02280220
KAXH 250515Z AUTO 00000KT 5SM BR SCT008 23/22 A2990 RMK AO2 T02310223
KAXH 250455Z AUTO 00000KT 1/2SM FG SCT001 OVC008 23/22 A2990 RMK AO2 T02270220
KAXH 250435Z AUTO 00000KT 1/2SM FG BKN006 OVC009 23/22 A2990 RMK AO2 T02260219
KAXH 250415Z AUTO 00000KT 1 1/2SM BR SCT011 24/23 A2991 RMK AO2 T02350226
KAXH 250355Z AUTO 00000KT 1 1/4SM BR VV007 23/22 A2991 RMK AO2 T02310222
KAXH 250335Z AUTO 00000KT 10SM SCT010 24/23 A2990 RMK AO2 T02360228
KAXH 250315Z AUTO 00000KT 10SM BKN010 24/23 A2989 RMK AO2 T02400232
KAXH 250255Z AUTO 00000KT 10SM BKN010 24/23 A2988 RMK AO2 T02400231
KAXH 250235Z AUTO 00000KT 10SM SCT010 24/23 A2988 RMK AO2 T02400231
KAXH 250215Z AUTO 00000KT 10SM CLR 24/23 A2988 RMK AO2 T02420234
KAXH 250155Z AUTO 14003KT 10SM CLR 25/24 A2986 RMK AO2 T02460238
KAXH 250135Z AUTO 14003KT 10SM CLR 25/24 A2986 RMK AO2 T02480240
KAXH 250115Z AUTO 13005KT 10SM CLR 25/24 A2985 RMK AO2 T02520244
KAXH 250055Z AUTO 13005KT 10SM CLR 26/25 A2985 RMK AO2 T02550247
KAXH 250035Z AUTO 14004KT 10SM SCT030 SCT035 26/25 A2985 RMK AO2 T02580246
KAXH 250015Z AUTO 13003KT 10SM SCT035 26/25 A2984 RMK AO2 T02610245
KAXH 242355Z AUTO 14003KT 10SM CLR 27/25 A2983 RMK AO2 T02670245 10308 20267
KAXH 242335Z AUTO 00000KT 10SM CLR 28/25 A2983 RMK AO2 T02750245
KAXH 242315Z AUTO 15003KT 10SM CLR 28/25 A2983 RMK AO2 T02780245
KAXH 242255Z AUTO 16004KT 10SM CLR 28/24 A2982 RMK AO2 T02800241
KAXH 242235Z AUTO 18003KT 10SM CLR 29/24 A2983 RMK AO2 T02870239
KAXH 242215Z AUTO 16004KT 10SM CLR 30/23 A2982 RMK AO2 T03010234
KAXH 242155Z AUTO 16003KT 10SM SCT035 30/23 A2982 RMK AO2 T02990232
KAXH 242135Z AUTO 16003KT 10SM SCT037 30/23 A2982 RMK AO2 T03040226
KAXH 242115Z AUTO 17003KT 10SM SCT035 31/22 A2982 RMK AO2 T03060224
KAXH 242055Z AUTO 19004KT 10SM BKN033 BKN041 BKN046 31/23 A2982 RMK AO2 T03060225
KAXH 242035Z AUTO 00000KT 10SM SCT033 SCT039 BKN046 30/23 A2983 RMK AO2 T03010229
KAXH 242015Z AUTO 14003KT 10SM SCT033 BKN041 BKN050 30/23 A2983 RMK AO2 T03010231
KAXH 241955Z AUTO 00000KT 10SM SCT033 BKN045 BKN050 30/23 A2983 RMK AO2 T03030226
KAXH 241935Z AUTO 20004KT 10SM SCT030 SCT037 SCT046 29/23 A2984 RMK AO2 T02930227
KAXH 241915Z AUTO 19003KT 10SM SCT028 BKN034 BKN040 29/23 A2984 RMK AO2 T02900231
KAXH 241855Z AUTO 00000KT 10SM -RA SCT028 SCT034 BKN050 29/24 A2985 RMK AO2 T02880239
KAXH 241835Z AUTO 18003KT 10SM SCT028 BKN034 BKN044 30/24 A2986 RMK AO2 T02970236
KAXH 241815Z AUTO 00000KT 10SM SCT024 SCT030 BKN035 29/23 A2987 RMK AO2 T02920234
KAXH 241755Z AUTO 12005KT 10SM SCT024 BKN038 OVC090 29/24 A2988 RMK AO2 T02920238 10294 20213
KAXH 241735Z AUTO 18003KT 10SM SCT026 BKN033 OVC090 28/23 A2988 RMK AO2 T02820234
KAXH 241715Z AUTO 16005KT 10SM SCT026 BKN033 BKN039 29/23 A2990 RMK AO2 T02940233
KAXH 241655Z AUTO 13004KT 10SM SCT024 SCT032 BKN039 29/23 A2990 RMK AO2 T02920234
KAXH 241635Z AUTO 15003KT 10SM SCT019 SCT031 28/24 A2991 RMK AO2 T02800236
KAXH 241615Z AUTO 14003KT 10SM SCT019 28/25 A2991 RMK AO2 LTG DSNT SE T02800245
KAXH 241555Z AUTO 12004KT 10SM SCT013 27/25 A2991 RMK AO2 T02730247
KAXH 241535Z AUTO 12006KT 10SM SCT013 SCT031 27/25 A2991 RMK AO2 T02680246
KAXH 241515Z AUTO 15005KT 10SM SCT013 BKN031 26/25 A2990 RMK AO2 LTG DSNT SE T02640246
KAXH 241455Z AUTO 13007KT 10SM SCT031 25/24 A2990 RMK AO2 LTG DSNT SE T02540244
KAXH 241435Z AUTO 13004KT 10SM SCT010 SCT014 BKN031 25/24 A2989 RMK AO2 T02480240
KAXH 241415Z AUTO 13005KT 10SM SCT008 SCT031 24/24 A2989 RMK AO2 T02440236
KAXH 241355Z AUTO 12006KT 10SM SCT031 24/23 A2988 RMK AO2 LTG DSNT SE T02360228
KAXH 241335Z AUTO 12003KT 10SM CLR 23/22 A2987 RMK AO2 LTG DSNT SE T02260219
KAXH 241315Z AUTO 11003KT 10SM SCT011 22/21 A2986 RMK AO2 LTG DSNT SE T02210213
KAXH 241255Z AUTO 10003KT 10SM SCT011 22/21 A2986 RMK AO2 T02160209
KAXH 241235Z AUTO 00000KT 10SM BKN011 22/21 A2986 RMK AO2 T02170210
KAXH 241215Z AUTO 00000KT 10SM CLR 22/21 A2986 RMK AO2 T02150207